createdAt,value
2018-08-07T00:02:26.867Z,99538.47
2018-08-07T00:04:55.113Z,99539.19
2018-08-07T00:07:23.301Z,99544.66
2018-08-07T00:09:51.638Z,99545.42
2018-08-07T00:12:20.161Z,99538.44
2018-08-07T00:14:48.372Z,99538.17
2018-08-07T00:17:16.816Z,99539.09
2018-08-07T00:19:45.202Z,99539.60
2018-08-07T00:22:13.489Z,99537.22
2018-08-07T00:24:41.949Z,99542.73
2018-08-07T00:27:10.129Z,99538.55
2018-08-07T00:29:38.609Z,99535.84
2018-08-07T00:32:07.085Z,99539.13
2018-08-07T00:34:35.464Z,99542.49
2018-08-07T00:37:03.471Z,99538.52
2018-08-07T00:39:31.408Z,99535.46
2018-08-07T00:41:59.350Z,99540.75
2018-08-07T00:44:27.306Z,99538.62
2018-08-07T00:46:55.301Z,99535.70
2018-08-07T00:49:23.226Z,99538.75
2018-08-07T00:51:51.193Z,99539.23
2018-08-07T00:54:19.144Z,99531.53
2018-08-07T00:56:47.056Z,99532.77
2018-08-07T00:59:15.019Z,99528.31
2018-08-07T01:01:42.978Z,99529.66
2018-08-07T01:04:11.291Z,99531.02
2018-08-07T01:06:39.862Z,99531.67
2018-08-07T01:09:08.821Z,99526.83
2018-08-07T01:11:37.246Z,99527.25
2018-08-07T01:14:05.621Z,99530.86
2018-08-07T01:16:33.598Z,99534.22
2018-08-07T01:19:02.073Z,99534.08
2018-08-07T01:21:30.645Z,99535.88
2018-08-07T01:23:58.838Z,99533.47
2018-08-07T01:26:27.306Z,99530.39
2018-08-07T01:28:55.586Z,99533.77
2018-08-07T01:31:23.962Z,99539.23
2018-08-07T01:33:52.338Z,99541.31
2018-08-07T01:36:20.818Z,99526.97
2018-08-07T01:38:49.185Z,99524.68
2018-08-07T01:41:17.564Z,99534.05
2018-08-07T01:43:45.941Z,99534.88
2018-08-07T01:46:14.216Z,99534.05
2018-08-07T01:48:42.631Z,99534.14
2018-08-07T01:51:11.085Z,99541.79
2018-08-07T01:53:39.448Z,99541.91
2018-08-07T01:56:07.939Z,99541.67
2018-08-07T01:58:36.429Z,99537.48
2018-08-07T02:01:04.599Z,99533.63
2018-08-07T02:03:33.077Z,99536.63
2018-08-07T02:06:01.557Z,99538.83
2018-08-07T02:08:30.021Z,99536.80
2018-08-07T02:10:58.036Z,99535.39
2018-08-07T02:13:26.369Z,99532.41
2018-08-07T02:15:54.856Z,99529.91
2018-08-07T02:18:23.132Z,99537.31
2018-08-07T02:20:51.510Z,99535.77
2018-08-07T02:23:19.889Z,99538.24
2018-08-07T02:25:48.253Z,99541.98
2018-08-07T02:28:16.676Z,99538.47
2018-08-07T02:30:44.626Z,99536.13
2018-08-07T02:33:12.897Z,99538.45
2018-08-07T02:35:41.469Z,99534.34
2018-08-07T02:38:09.959Z,99536.05
2018-08-07T02:40:38.214Z,99531.67
2018-08-07T02:43:06.600Z,99537.78
2018-08-07T02:45:35.126Z,99534.20
2018-08-07T02:48:03.568Z,99536.55
2018-08-07T02:50:32.050Z,99534.22
2018-08-07T02:53:00.566Z,99538.80
2018-08-07T02:55:28.806Z,99542.20
2018-08-07T02:57:57.187Z,99540.92
2018-08-07T03:00:25.523Z,99541.91
2018-08-07T03:02:53.934Z,99541.75
2018-08-07T03:05:22.308Z,99546.75
2018-08-07T03:07:50.796Z,99545.71
2018-08-07T03:10:19.269Z,99549.81
2018-08-07T03:12:47.566Z,99547.14
2018-08-07T03:15:17.308Z,99549.81
2018-08-07T03:17:46.545Z,99549.65
2018-08-07T03:20:15.271Z,99550.67
2018-08-07T03:22:43.825Z,99555.02
2018-08-07T03:25:13.101Z,99560.55
2018-08-07T03:27:42.077Z,99558.95
2018-08-07T03:30:13.149Z,99557.84
2018-08-07T03:32:41.437Z,99563.04
2018-08-07T03:35:09.910Z,99563.12
2018-08-07T03:37:38.968Z,99562.88
2018-08-07T03:40:09.181Z,99559.44
2018-08-07T03:42:37.804Z,99559.20
2018-08-07T03:45:06.893Z,99559.41
2018-08-07T03:47:35.098Z,99568.50
2018-08-07T03:50:03.464Z,99563.60
2018-08-07T03:52:31.838Z,99566.60
2018-08-07T03:55:00.251Z,99561.39
2018-08-07T03:57:28.356Z,99566.69
2018-08-07T03:59:56.666Z,99565.06
2018-08-07T04:02:25.153Z,99563.55
2018-08-07T04:04:53.579Z,99563.53
2018-08-07T04:07:22.110Z,99567.93
2018-08-07T04:09:50.577Z,99569.47
2018-08-07T04:12:18.761Z,99565.64
2018-08-07T04:14:47.130Z,99567.07
2018-08-07T04:17:15.414Z,99569.34
2018-08-07T04:19:43.595Z,99569.63
2018-08-07T04:22:12.916Z,99566.33
2018-08-07T04:24:41.270Z,99576.84
2018-08-07T04:27:09.340Z,99580.98
2018-08-07T04:29:37.744Z,99581.70
2018-08-07T04:32:06.091Z,99584.56
2018-08-07T04:34:34.475Z,99576.15
2018-08-07T04:37:02.974Z,99577.08
2018-08-07T04:39:31.443Z,99576.78
2018-08-07T04:41:59.603Z,99580.45
2018-08-07T04:44:28.233Z,99581.13
2018-08-07T04:46:56.556Z,99587.88
2018-08-07T04:49:25.033Z,99583.31
2018-08-07T04:51:53.261Z,99586.84
2018-08-07T04:54:21.619Z,99590.88
2018-08-07T04:56:50.062Z,99589.17
2018-08-07T04:59:18.540Z,99591.13
2018-08-07T05:01:47.034Z,99591.92
2018-08-07T05:04:15.309Z,99597.35
2018-08-07T05:06:43.838Z,99604.11
2018-08-07T05:09:12.275Z,99598.73
2018-08-07T05:11:40.738Z,99605.45
2018-08-07T05:14:09.154Z,99601.38
2018-08-07T05:16:37.398Z,99609.12
2018-08-07T05:19:05.883Z,99608.64
2018-08-07T05:21:34.140Z,99607.30
2018-08-07T05:24:02.624Z,99611.36
2018-08-07T05:26:31.025Z,99611.86
2018-08-07T05:28:58.936Z,99604.02
2018-08-07T05:31:27.263Z,99611.80
2018-08-07T05:33:55.736Z,99607.59
2018-08-07T05:36:24.115Z,99608.33
2018-08-07T05:38:52.638Z,99613.06
2018-08-07T05:41:21.281Z,99617.09
2018-08-07T05:43:49.769Z,99608.03
2018-08-07T05:46:18.332Z,99615.91
2018-08-07T05:48:46.721Z,99619.66
2018-08-07T05:51:15.534Z,99616.14
2018-08-07T05:53:43.593Z,99616.31
2018-08-07T05:56:11.965Z,99614.30
2018-08-07T05:58:40.445Z,99614.78
2018-08-07T06:01:09.221Z,99616.48
2018-08-07T06:03:37.837Z,99619.84
2018-08-07T06:06:06.294Z,99626.72
2018-08-07T06:08:34.473Z,99618.17
2018-08-07T06:11:02.918Z,99622.88
2018-08-07T06:13:31.330Z,99622.69
2018-08-07T06:15:59.298Z,99617.81
2018-08-07T06:18:27.875Z,99619.83
2018-08-07T06:20:56.152Z,99618.81
2018-08-07T06:23:24.251Z,99616.45
2018-08-07T06:25:52.805Z,99622.34
2018-08-07T06:28:21.181Z,99619.31
2018-08-07T06:30:49.192Z,99625.50
2018-08-07T06:33:17.622Z,99628.88
2018-08-07T06:35:46.119Z,99629.16
2018-08-07T06:38:14.107Z,99628.30
2018-08-07T06:40:42.657Z,99629.80
2018-08-07T06:43:10.934Z,99629.44
2018-08-07T06:45:39.164Z,99624.86
2018-08-07T06:48:07.609Z,99627.53
2018-08-07T06:50:36.064Z,99622.92
2018-08-07T06:53:04.549Z,99626.09
2018-08-07T06:55:32.947Z,99619.13
2018-08-07T06:58:01.407Z,99625.33
2018-08-07T07:00:29.994Z,99626.45
2018-08-07T07:02:58.462Z,99628.95
2018-08-07T07:05:26.941Z,99630.45
2018-08-07T07:07:55.218Z,99634.80
2018-08-07T07:10:23.706Z,99631.25
2018-08-07T07:12:52.291Z,99631.70
2018-08-07T07:15:20.772Z,99628.61
2018-08-07T07:17:49.258Z,99630.22
2018-08-07T07:20:18.393Z,99631.81
2018-08-07T07:22:48.093Z,99631.02
2018-08-07T07:25:17.389Z,99626.97
2018-08-07T07:27:45.941Z,99633.17
2018-08-07T07:30:15.908Z,99633.63
2018-08-07T07:32:45.197Z,99634.72
2018-08-07T07:35:13.987Z,99632.67
2018-08-07T07:37:42.413Z,99639.86
2018-08-07T07:40:10.691Z,99637.02
2018-08-07T07:42:39.681Z,99639.38
2018-08-07T07:45:10.719Z,99633.60
2018-08-07T07:47:40.460Z,99632.84
2018-08-07T07:50:11.295Z,99634.98
2018-08-07T07:52:40.209Z,99631.72
2018-08-07T07:55:09.408Z,99628.33
2018-08-07T07:57:38.557Z,99634.42
2018-08-07T08:00:09.562Z,99635.84
2018-08-07T08:02:37.596Z,99638.47
2018-08-07T08:05:06.508Z,99634.14
2018-08-07T08:07:34.622Z,99636.55
2018-08-07T08:10:02.866Z,99636.56
2018-08-07T08:12:30.792Z,99632.48
2018-08-07T08:14:59.247Z,99632.61
2018-08-07T08:17:27.232Z,99625.79
2018-08-07T08:19:55.582Z,99628.53
2018-08-07T08:22:23.998Z,99630.42
2018-08-07T08:24:52.441Z,99627.41
2018-08-07T08:27:20.826Z,99628.06
2018-08-07T08:29:49.341Z,99623.68
2018-08-07T08:32:17.881Z,99622.09
2018-08-07T08:34:46.361Z,99619.44
2018-08-07T08:37:14.646Z,99622.72
2018-08-07T08:39:43.022Z,99617.23
2018-08-07T08:42:11.424Z,99619.94
2018-08-07T08:44:39.986Z,99619.94
2018-08-07T08:47:08.254Z,99617.14
2018-08-07T08:49:36.629Z,99617.06
2018-08-07T08:52:05.438Z,99618.84
2018-08-07T08:54:34.002Z,99619.47
2018-08-07T08:57:02.280Z,99617.77
2018-08-07T08:59:30.662Z,99613.16
2018-08-07T09:01:59.244Z,99608.16
2018-08-07T09:04:27.722Z,99607.05
2018-08-07T09:06:56.001Z,99605.35
2018-08-07T09:09:24.529Z,99605.47
2018-08-07T09:11:52.449Z,99605.35
2018-08-07T09:14:20.917Z,99600.30
2018-08-07T09:16:49.306Z,99603.70
2018-08-07T09:19:17.284Z,99608.01
2018-08-07T09:21:45.857Z,99602.55
2018-08-07T09:24:14.338Z,99594.22
2018-08-07T09:26:42.941Z,99602.28
2018-08-07T09:29:11.493Z,99602.08
2018-08-07T09:31:39.781Z,99605.30
2018-08-07T09:34:08.361Z,99608.45
2018-08-07T09:36:36.846Z,99603.55
2018-08-07T09:39:09.317Z,99603.45
2018-08-07T09:41:37.889Z,99600.09
2018-08-07T09:44:07.730Z,99604.18
2018-08-07T09:46:36.095Z,99596.41
2018-08-07T09:49:04.979Z,99596.05
2018-08-07T09:51:33.142Z,99591.00
2018-08-07T09:54:01.621Z,99585.41
2018-08-07T09:56:29.873Z,99593.77
2018-08-07T09:58:58.386Z,99580.50
2018-08-07T10:01:32.437Z,99572.78
2018-08-07T10:04:01.394Z,99577.37
2018-08-07T10:06:29.562Z,99584.52
2018-08-07T10:08:58.483Z,99581.92
2018-08-07T10:11:26.929Z,99575.33
2018-08-07T10:13:55.310Z,99573.67
2018-08-07T10:16:23.886Z,99569.60
2018-08-07T10:18:52.165Z,99563.11
2018-08-07T10:21:20.646Z,99563.45
2018-08-07T10:23:48.823Z,99555.95
2018-08-07T10:26:17.305Z,99559.92
2018-08-07T10:28:45.661Z,99551.75
2018-08-07T10:31:14.058Z,99547.80
2018-08-07T10:33:42.429Z,99545.20
2018-08-07T10:36:10.814Z,99541.02
2018-08-07T10:38:39.085Z,99533.17
2018-08-07T10:41:07.648Z,99540.95
2018-08-07T10:43:36.155Z,99535.88
2018-08-07T10:46:04.639Z,99519.91
2018-08-07T10:48:32.883Z,99520.80
2018-08-07T10:51:01.285Z,99515.45
2018-08-07T10:53:29.654Z,99507.86
2018-08-07T10:55:57.929Z,99505.76
2018-08-07T10:58:26.389Z,99508.80
2018-08-07T11:00:54.799Z,99514.84
2018-08-07T11:03:23.180Z,99517.78
2018-08-07T11:05:51.779Z,99519.13
2018-08-07T11:08:20.238Z,99520.90
2018-08-07T11:10:48.516Z,99519.53
2018-08-07T11:13:16.990Z,99524.05
2018-08-07T11:15:45.498Z,99521.66
2018-08-07T11:18:13.850Z,99506.30
2018-08-07T11:20:42.329Z,99511.42
2018-08-07T11:23:10.720Z,99511.31
2018-08-07T11:25:39.291Z,99507.98
2018-08-07T11:28:07.769Z,99507.14
2018-08-07T11:30:36.047Z,99510.69
2018-08-07T11:33:04.521Z,99513.84
2018-08-07T11:35:33.010Z,99514.13
2018-08-07T11:38:02.213Z,99510.84
2018-08-07T11:40:30.475Z,99511.47
2018-08-07T11:42:59.230Z,99511.64
2018-08-07T11:45:28.887Z,99503.70
2018-08-07T11:47:57.420Z,99498.87
2018-08-07T11:50:26.916Z,99505.09
2018-08-07T11:52:55.337Z,99526.76
2018-08-07T11:55:24.220Z,99579.31
2018-08-07T11:57:53.252Z,99613.50
2018-08-07T12:00:33.221Z,99616.81
2018-08-07T12:03:01.752Z,99621.41
2018-08-07T12:05:29.694Z,99673.87
2018-08-07T12:07:57.746Z,99673.20
2018-08-07T12:10:25.620Z,99655.78
2018-08-07T12:12:53.738Z,99641.04
2018-08-07T12:15:23.183Z,99614.80
2018-08-07T12:17:51.709Z,99601.63
2018-08-07T12:20:20.184Z,99587.52
2018-08-07T12:22:48.560Z,99582.17
2018-08-07T12:25:17.615Z,99585.95
2018-08-07T12:27:46.065Z,99591.83
2018-08-07T12:30:16.529Z,99577.22
2018-08-07T12:32:45.299Z,99560.97
2018-08-07T12:35:13.379Z,99548.25
2018-08-07T12:37:41.401Z,99532.42
2018-08-07T12:40:14.674Z,99529.73
2018-08-07T12:42:42.772Z,99524.52
2018-08-07T12:45:10.972Z,99526.17
2018-08-07T12:47:39.612Z,99525.80
2018-08-07T12:50:09.130Z,99523.99
2018-08-07T12:52:37.606Z,99519.97
2018-08-07T12:55:05.927Z,99519.28
2018-08-07T12:57:34.259Z,99525.85
2018-08-07T13:00:03.084Z,99516.78
2018-08-07T13:02:31.635Z,99519.30
2018-08-07T13:04:59.907Z,99511.91
2018-08-07T13:07:28.282Z,99508.58
2018-08-07T13:09:56.746Z,99507.55
2018-08-07T13:12:24.809Z,99506.17
2018-08-07T13:14:53.317Z,99509.98
2018-08-07T13:17:21.767Z,99504.44
2018-08-07T13:19:49.957Z,99512.80
2018-08-07T13:22:18.242Z,99513.13
2018-08-07T13:24:46.618Z,99507.16
2018-08-07T13:27:14.512Z,99502.62
2018-08-07T13:29:42.506Z,99502.25
2018-08-07T13:32:10.458Z,99505.22
2018-08-07T13:34:38.733Z,99501.18
2018-08-07T13:37:06.772Z,99505.84
2018-08-07T13:39:34.632Z,99509.70
2018-08-07T13:42:03.448Z,99503.65
2018-08-07T13:44:31.905Z,99504.14
2018-08-07T13:47:00.173Z,99501.72
2018-08-07T13:49:28.601Z,99503.91
2018-08-07T13:51:56.928Z,99503.06
2018-08-07T13:54:25.318Z,99497.79
2018-08-07T13:56:53.689Z,99495.86
2018-08-07T13:59:21.878Z,99497.91
2018-08-07T14:01:50.342Z,99496.11
2018-08-07T14:04:18.714Z,99496.90
2018-08-07T14:06:47.197Z,99502.68
2018-08-07T14:09:15.747Z,99488.61
2018-08-07T14:11:44.153Z,99492.81
2018-08-07T14:14:12.632Z,99492.27
2018-08-07T14:16:41.220Z,99492.42
2018-08-07T14:19:09.506Z,99492.72
2018-08-07T14:21:37.982Z,99490.83
2018-08-07T14:24:06.362Z,99493.02
2018-08-07T14:26:34.779Z,99492.66
2018-08-07T14:29:03.318Z,99486.00
2018-08-07T14:31:31.721Z,99483.33
2018-08-07T14:34:00.169Z,99487.47
2018-08-07T14:36:28.588Z,99485.23
2018-08-07T14:38:57.129Z,99487.83
2018-08-07T14:41:25.305Z,99475.01
2018-08-07T14:43:53.691Z,99476.23
2018-08-07T14:46:22.210Z,99477.36
2018-08-07T14:48:50.741Z,99472.74
2018-08-07T14:51:19.147Z,99466.82
2018-08-07T14:53:47.497Z,99470.20
2018-08-07T14:56:15.686Z,99477.19
2018-08-07T14:58:44.145Z,99472.48
2018-08-07T15:01:12.347Z,99475.84
2018-08-07T15:03:40.722Z,99473.73
2018-08-07T15:06:08.956Z,99477.44
2018-08-07T15:08:37.272Z,99469.41
2018-08-07T15:11:05.754Z,99464.38
2018-08-07T15:13:34.217Z,99472.57
2018-08-07T15:16:02.611Z,99460.88
2018-08-07T15:18:31.177Z,99467.77
2018-08-07T15:20:59.469Z,99461.08
2018-08-07T15:23:27.838Z,99466.55
2018-08-07T15:25:56.112Z,99464.83
2018-08-07T15:28:24.386Z,99462.05
2018-08-07T15:30:52.682Z,99464.45
2018-08-07T15:33:21.142Z,99463.98
2018-08-07T15:35:49.418Z,99470.44
2018-08-07T15:38:17.797Z,99469.72
2018-08-07T15:40:46.174Z,99472.90
2018-08-07T15:43:14.553Z,99478.41
2018-08-07T15:45:42.831Z,99486.24
2018-08-07T15:48:11.220Z,99476.75
2018-08-07T15:50:39.795Z,99483.88
2018-08-07T15:53:08.161Z,99484.08
2018-08-07T15:55:36.134Z,99480.13
2018-08-07T15:58:04.506Z,99479.99
2018-08-07T16:00:32.890Z,99478.88
2018-08-07T16:03:02.517Z,99484.78
2018-08-07T16:05:31.099Z,99482.02
2018-08-07T16:07:59.691Z,99483.74
2018-08-07T16:10:28.107Z,99483.61
2018-08-07T16:12:56.627Z,99491.88
2018-08-07T16:15:25.101Z,99490.45
2018-08-07T16:17:53.928Z,99492.96
2018-08-07T16:20:22.829Z,99498.22
2018-08-07T16:22:51.358Z,99498.84
2018-08-07T16:25:20.453Z,99491.16
2018-08-07T16:27:49.592Z,99492.52
2018-08-07T16:30:23.094Z,99495.64
2018-08-07T16:32:51.421Z,99490.00
2018-08-07T16:35:19.824Z,99492.76
2018-08-07T16:37:48.395Z,99498.32
2018-08-07T16:40:18.210Z,99496.16
2018-08-07T16:42:46.794Z,99507.66
2018-08-07T16:45:16.819Z,99515.06
2018-08-07T16:47:45.178Z,99512.31
2018-08-07T16:50:16.162Z,99515.28
2018-08-07T16:52:44.594Z,99519.92
2018-08-07T16:55:12.970Z,99527.11
2018-08-07T16:57:41.605Z,99529.28
2018-08-07T17:00:11.351Z,99534.08
2018-08-07T17:02:39.664Z,99539.04
2018-08-07T17:05:10.071Z,99534.44
2018-08-07T17:07:38.638Z,99540.05
2018-08-07T17:10:10.191Z,99545.66
2018-08-07T17:12:38.678Z,99546.45
2018-08-07T17:15:08.562Z,99546.73
2018-08-07T17:17:37.383Z,99543.53
2018-08-07T17:20:06.949Z,99546.97
2018-08-07T17:22:35.576Z,99544.55
2018-08-07T17:25:04.353Z,99552.13
2018-08-07T17:27:32.853Z,99547.44
2018-08-07T17:30:01.420Z,99556.25
2018-08-07T17:32:29.694Z,99551.94
2018-08-07T17:34:58.068Z,99555.83
2018-08-07T17:37:26.351Z,99554.11
2018-08-07T17:39:54.834Z,99556.59
2018-08-07T17:42:23.201Z,99558.52
2018-08-07T17:44:51.600Z,99554.98
2018-08-07T17:47:19.973Z,99557.66
2018-08-07T17:49:47.950Z,99564.01
2018-08-07T17:52:16.308Z,99560.62
2018-08-07T17:54:44.902Z,99565.78
2018-08-07T17:57:13.097Z,99570.60
2018-08-07T17:59:41.654Z,99570.91
2018-08-07T18:02:10.022Z,99578.88
2018-08-07T18:04:38.393Z,99578.03
2018-08-07T18:07:06.981Z,99587.73
2018-08-07T18:09:35.381Z,99591.12
2018-08-07T18:12:03.951Z,99591.81
2018-08-07T18:14:32.322Z,99594.72
2018-08-07T18:17:00.714Z,99595.91
2018-08-07T18:19:29.194Z,99599.61
2018-08-07T18:21:57.764Z,99601.14
2018-08-07T18:24:26.089Z,99593.91
2018-08-07T18:26:54.675Z,99599.34
2018-08-07T18:29:23.099Z,99605.73
2018-08-07T18:31:51.594Z,99602.03
2018-08-07T18:34:19.866Z,99610.22
2018-08-07T18:36:48.248Z,99604.17
2018-08-07T18:39:16.524Z,99601.14
2018-08-07T18:41:44.997Z,99606.38
2018-08-07T18:44:13.245Z,99612.16
2018-08-07T18:46:41.653Z,99613.80
2018-08-07T18:49:09.937Z,99614.94
2018-08-07T18:51:38.510Z,99618.31
2018-08-07T18:54:07.317Z,99621.34
2018-08-07T18:56:35.734Z,99621.69
2018-08-07T18:59:04.271Z,99617.58
2018-08-07T19:01:32.646Z,99611.17
2018-08-07T19:04:01.014Z,99616.97
2018-08-07T19:06:29.038Z,99612.18
2018-08-07T19:08:57.565Z,99610.75
2018-08-07T19:11:25.924Z,99608.47
2018-08-07T19:13:54.322Z,99616.73
2018-08-07T19:16:22.705Z,99621.11
2018-08-07T19:18:50.974Z,99622.17
2018-08-07T19:21:19.446Z,99617.45
2018-08-07T19:23:47.738Z,99617.33
2018-08-07T19:26:16.109Z,99618.48
2018-08-07T19:28:44.281Z,99610.73
2018-08-07T19:31:12.749Z,99620.47
2018-08-07T19:33:41.054Z,99627.56
2018-08-07T19:36:09.618Z,99631.75
2018-08-07T19:38:37.785Z,99639.66
2018-08-07T19:41:06.485Z,99632.95
2018-08-07T19:43:34.781Z,99631.44
2018-08-07T19:46:03.401Z,99627.41
2018-08-07T19:48:32.018Z,99634.45
2018-08-07T19:51:00.392Z,99625.06
2018-08-07T19:53:28.781Z,99627.58
2018-08-07T19:55:56.975Z,99633.95
2018-08-07T19:58:25.525Z,99630.61
2018-08-07T20:00:53.796Z,99632.12
2018-08-07T20:03:22.378Z,99634.13
2018-08-07T20:05:50.753Z,99639.02
2018-08-07T20:08:18.692Z,99644.56
2018-08-07T20:10:47.142Z,99640.86
2018-08-07T20:13:15.700Z,99637.31
2018-08-07T20:15:43.726Z,99641.51
2018-08-07T20:18:12.145Z,99632.05
2018-08-07T20:20:40.518Z,99633.39
2018-08-07T20:23:09.106Z,99635.61
2018-08-07T20:25:37.595Z,99635.63
2018-08-07T20:28:06.158Z,99639.19
2018-08-07T20:30:34.555Z,99636.16
2018-08-07T20:33:03.125Z,99640.17
2018-08-07T20:35:31.350Z,99633.97
2018-08-07T20:37:59.876Z,99630.95
2018-08-07T20:40:28.608Z,99641.70
2018-08-07T20:42:57.771Z,99638.14
2018-08-07T20:45:26.247Z,99633.61
2018-08-07T20:47:54.720Z,99633.29
2018-08-07T20:50:25.141Z,99625.38
2018-08-07T20:52:54.102Z,99622.97
2018-08-07T20:55:22.632Z,99623.66
2018-08-07T20:57:51.009Z,99628.69
2018-08-07T21:00:21.597Z,99631.88
2018-08-07T21:02:50.036Z,99629.02
2018-08-07T21:05:18.494Z,99634.56
2018-08-07T21:07:46.873Z,99643.91
2018-08-07T21:10:17.503Z,99647.35
2018-08-07T21:12:45.982Z,99653.70
2018-08-07T21:15:14.364Z,99652.05
2018-08-07T21:17:42.734Z,99652.85
2018-08-07T21:20:14.147Z,99653.22
2018-08-07T21:22:42.736Z,99653.80
2018-08-07T21:25:14.951Z,99662.45
2018-08-07T21:27:43.787Z,99668.78
2018-08-07T21:30:17.018Z,99668.81
2018-08-07T21:32:45.511Z,99668.30
2018-08-07T21:35:13.981Z,99672.84
2018-08-07T21:37:42.358Z,99667.81
2018-08-07T21:40:13.941Z,99669.17
2018-08-07T21:42:42.586Z,99662.81
2018-08-07T21:45:11.178Z,99668.80
2018-08-07T21:47:39.649Z,99661.03
2018-08-07T21:50:10.854Z,99662.96
2018-08-07T21:52:39.278Z,99665.39
2018-08-07T21:55:09.350Z,99663.53
2018-08-07T21:57:37.881Z,99666.04
2018-08-07T22:00:17.937Z,99668.34
2018-08-07T22:02:47.171Z,99677.95
2018-08-07T22:05:15.714Z,99668.24
2018-08-07T22:07:43.989Z,99668.05
2018-08-07T22:10:27.110Z,99672.42
2018-08-07T22:12:55.478Z,99664.77
2018-08-07T22:15:23.862Z,99662.75
2018-08-07T22:17:52.443Z,99662.98
2018-08-07T22:20:20.722Z,99678.09
2018-08-07T22:22:49.198Z,99672.92
2018-08-07T22:25:17.682Z,99667.96
2018-08-07T22:27:46.062Z,99677.05
2018-08-07T22:30:17.674Z,99679.43
2018-08-07T22:32:46.350Z,99675.69
2018-08-07T22:35:14.882Z,99674.23
2018-08-07T22:37:43.266Z,99670.17
2018-08-07T22:40:12.441Z,99667.00
2018-08-07T22:42:40.942Z,99668.34
2018-08-07T22:45:10.957Z,99673.41
2018-08-07T22:47:39.732Z,99680.91
2018-08-07T22:50:09.371Z,99680.86
2018-08-07T22:52:37.962Z,99674.20
2018-08-07T22:55:08.091Z,99686.30
2018-08-07T22:57:36.389Z,99678.94
2018-08-07T23:00:07.945Z,99680.17
2018-08-07T23:02:36.459Z,99685.36
2018-08-07T23:05:05.313Z,99677.59
2018-08-07T23:07:33.714Z,99681.18
2018-08-07T23:10:02.201Z,99682.27
2018-08-07T23:12:30.729Z,99673.70
2018-08-07T23:14:59.166Z,99668.48
2018-08-07T23:17:27.442Z,99672.23
2018-08-07T23:19:55.711Z,99676.58
2018-08-07T23:22:24.098Z,99674.28
2018-08-07T23:24:52.679Z,99682.16
2018-08-07T23:27:21.202Z,99680.86
2018-08-07T23:29:49.637Z,99680.92
2018-08-07T23:32:17.914Z,99675.55
2018-08-07T23:34:46.181Z,99674.83
2018-08-07T23:37:14.566Z,99677.92
2018-08-07T23:39:42.730Z,99677.32
2018-08-07T23:42:11.022Z,99681.94
2018-08-07T23:44:39.288Z,99677.30
2018-08-07T23:47:07.568Z,99674.97
2018-08-07T23:49:35.946Z,99673.56
2018-08-07T23:52:04.413Z,99674.12
2018-08-07T23:54:33.011Z,99683.31
2018-08-07T23:57:01.385Z,99685.01
2018-08-07T23:59:29.858Z,99688.09
